Time;durP1;ratioP1;P1;durP2;ratioP2;P2;SDS_P1;SDS_P2;PMS_P1;PMS_P2;Temp;Humidity;BMP_temperature;BMP_pressure;BME280_temperature;BME280_humidity;BME280_pressure;Samples;Min_cycle;Max_cycle;Signal;HPM_P1;HPM_P2
2024/02/29 05:32:02;;;;;;;0.10;0.10;;;11.00;90.50;;;;;;5049445;24;20448;-74
2024/02/29 05:34:27;;;;;;;0.10;0.10;;;11.00;90.60;;;;;;4841376;29;20022;-73
2024/02/29 05:36:53;;;;;;;0.10;0.10;;;10.90;90.60;;;;;;4855150;29;20037;-73
2024/02/29 05:39:18;;;;;;;0.10;0.10;;;10.90;90.80;;;;;;4851653;29;20026;-74
2024/02/29 05:41:44;;;;;;;0.10;0.10;;;10.90;90.80;;;;;;4859301;29;20030;-74
2024/02/29 05:44:09;;;;;;;0.10;0.10;;;10.90;90.80;;;;;;4863347;29;20022;-73
2024/02/29 05:46:35;;;;;;;0.10;0.10;;;10.90;90.90;;;;;;4847108;29;20065;-74
2024/02/29 05:49:01;;;;;;;0.10;0.10;;;10.90;91.00;;;;;;4854901;29;20095;-74
2024/02/29 05:51:27;;;;;;;0.10;0.10;;;11.00;90.90;;;;;;4849895;29;20134;-75
2024/02/29 05:53:53;;;;;;;0.10;0.10;;;11.00;90.80;;;;;;4849926;29;20033;-75
2024/02/29 05:56:18;;;;;;;0.00;0.00;;;10.90;90.90;;;;;;4856964;29;20105;-76
2024/02/29 05:58:44;;;;;;;0.10;0.10;;;10.90;90.90;;;;;;4866425;29;20037;-76
2024/02/29 06:01:10;;;;;;;0.10;0.10;;;10.90;91.00;;;;;;4863931;29;20089;-76
2024/02/29 06:03:37;;;;;;;0.10;0.10;;;10.90;90.90;;;;;;4855389;29;20040;-76
2024/02/29 06:06:04;;;;;;;0.10;0.10;;;10.90;91.00;;;;;;4866304;29;20037;-73
2024/02/29 06:08:30;;;;;;;0.10;0.10;;;10.90;91.10;;;;;;4866299;29;20132;-76
2024/02/29 06:10:55;;;;;;;0.13;0.13;;;10.90;91.20;;;;;;4855330;29;20521;-76
2024/02/29 06:13:21;;;;;;;0.10;0.10;;;11.00;91.00;;;;;;4847835;29;20055;-76
2024/02/29 06:15:47;;;;;;;0.10;0.10;;;10.90;91.00;;;;;;4847601;29;20109;-77
2024/02/29 06:18:13;;;;;;;0.10;0.10;;;11.00;91.00;;;;;;4849204;29;20030;-76
2024/02/29 06:20:39;;;;;;;0.10;0.10;;;10.90;90.90;;;;;;4852880;29;20038;-76
2024/02/29 06:23:05;;;;;;;0.10;0.10;;;11.00;91.00;;;;;;4865996;29;20034;-76
2024/02/29 06:25:31;;;;;;;0.10;0.10;;;10.90;90.90;;;;;;4845952;29;20056;-76
2024/02/29 06:27:57;;;;;;;0.10;0.10;;;10.90;91.10;;;;;;4847507;29;20053;-76
2024/02/29 06:30:31;;;;;;;0.10;0.10;;;10.90;91.10;;;;;;4830845;29;20058;-76
2024/02/29 06:32:57;;;;;;;0.10;0.10;;;10.90;91.00;;;;;;4849791;29;20105;-76
2024/02/29 06:35:23;;;;;;;0.10;0.10;;;10.90;91.10;;;;;;4865849;29;20034;-76
2024/02/29 06:37:48;;;;;;;0.10;0.10;;;10.80;91.10;;;;;;4849288;29;20033;-76
2024/02/29 06:40:14;;;;;;;0.10;0.10;;;10.90;91.20;;;;;;4865906;29;20037;-76
2024/02/29 06:42:40;;;;;;;0.10;0.10;;;10.90;91.10;;;;;;4859690;29;20029;-76
2024/02/29 06:45:07;;;;;;;0.10;0.10;;;10.90;91.10;;;;;;4865824;29;20029;-76
2024/02/29 06:47:33;;;;;;;0.10;0.10;;;10.90;91.00;;;;;;4865831;29;20026;-76
2024/02/29 06:50:00;;;;;;;0.10;0.10;;;10.90;91.00;;;;;;4858956;29;20055;-75
2024/02/29 06:52:26;;;;;;;0.10;0.10;;;10.90;91.10;;;;;;4847368;29;20037;-75
2024/02/29 06:54:52;;;;;;;0.10;0.10;;;10.80;91.10;;;;;;4847319;29;20042;-75
2024/02/29 06:57:18;;;;;;;0.10;0.10;;;10.90;91.10;;;;;;4847025;29;20026;-75
2024/02/29 06:59:43;;;;;;;0.10;0.10;;;10.80;91.00;;;;;;4864868;29;20033;-76
2024/02/29 07:02:09;;;;;;;0.10;0.10;;;10.80;91.10;;;;;;4853700;29;20090;-76
2024/02/29 07:04:35;;;;;;;0.10;0.10;;;10.80;91.20;;;;;;4844850;29;20048;-76
2024/02/29 07:07:00;;;;;;;0.10;0.10;;;10.80;91.10;;;;;;4831867;29;20034;-76
2024/02/29 07:09:26;;;;;;;0.10;0.10;;;10.80;91.20;;;;;;4846915;29;20045;-76
2024/02/29 07:11:52;;;;;;;0.10;0.10;;;10.80;91.00;;;;;;4846769;29;20026;-75
2024/02/29 07:14:18;;;;;;;0.10;0.10;;;10.80;90.90;;;;;;4846810;29;20121;-76
2024/02/29 07:16:43;;;;;;;0.10;0.10;;;10.80;91.00;;;;;;4846472;29;20041;-76
2024/02/29 07:19:09;;;;;;;0.10;0.10;;;10.80;91.00;;;;;;4847030;29;20086;-76
2024/02/29 07:21:35;;;;;;;0.10;0.10;;;10.80;91.00;;;;;;4846577;29;20030;-75
2024/02/29 07:24:02;;;;;;;0.20;0.20;;;10.80;90.80;;;;;;4830052;29;20406;-76
2024/02/29 07:26:28;;;;;;;0.13;0.13;;;10.90;90.90;;;;;;4846910;29;20104;-75
2024/02/29 07:28:54;;;;;;;0.10;0.10;;;11.00;90.70;;;;;;4846729;29;20061;-75
2024/02/29 07:31:19;;;;;;;0.20;0.20;;;11.10;90.40;;;;;;4846243;29;20522;-75
2024/02/29 07:33:46;;;;;;;0.20;0.20;;;11.20;90.20;;;;;;4862018;29;20068;-76
2024/02/29 07:36:12;;;;;;;0.20;0.20;;;11.20;90.10;;;;;;4864886;29;20485;-76
2024/02/29 07:38:38;;;;;;;0.20;0.20;;;11.40;89.80;;;;;;4864808;29;20026;-76
2024/02/29 07:41:03;;;;;;;0.20;0.20;;;11.50;89.40;;;;;;4859635;29;20044;-76
2024/02/29 07:43:29;;;;;;;0.10;0.10;;;11.70;89.50;;;;;;4861854;29;20608;-75
2024/02/29 07:45:55;;;;;;;0.10;0.10;;;11.80;89.10;;;;;;4846057;29;20386;-76
2024/02/29 07:48:20;;;;;;;0.10;0.10;;;11.70;89.00;;;;;;4846406;29;20037;-76
2024/02/29 07:50:46;;;;;;;0.10;0.10;;;11.60;89.00;;;;;;4846380;29;20078;-76
2024/02/29 07:53:12;;;;;;;0.10;0.10;;;11.50;89.20;;;;;;4845967;29;20098;-76
2024/02/29 07:55:37;;;;;;;0.10;0.10;;;11.50;89.20;;;;;;4845996;29;20034;-76
2024/02/29 07:58:05;;;;;;;0.10;0.10;;;11.40;89.20;;;;;;4846072;29;20067;-76
2024/02/29 08:00:30;;;;;;;0.10;0.10;;;11.50;89.40;;;;;;4829799;29;20030;-75
2024/02/29 08:02:56;;;;;;;0.10;0.10;;;11.40;89.30;;;;;;4857573;29;20834;-76
2024/02/29 08:05:22;;;;;;;0.10;0.10;;;11.50;89.20;;;;;;4854167;29;20029;-76
2024/02/29 08:07:48;;;;;;;0.10;0.10;;;11.50;89.20;;;;;;4853887;29;20031;-75
2024/02/29 08:10:17;;;;;;;0.10;0.10;;;11.50;89.10;;;;;;4847742;29;20128;-74
2024/02/29 08:12:43;;;;;;;0.10;0.10;;;11.50;89.10;;;;;;4859237;29;20034;-74
2024/02/29 08:15:09;;;;;;;0.10;0.10;;;11.60;89.30;;;;;;4844772;29;20897;-74
2024/02/29 08:17:35;;;;;;;0.10;0.10;;;11.50;89.00;;;;;;4845748;29;20042;-74
2024/02/29 08:20:01;;;;;;;0.10;0.10;;;11.60;89.00;;;;;;4844228;29;20022;-74
2024/02/29 08:22:27;;;;;;;0.20;0.20;;;11.80;89.00;;;;;;4847919;29;20025;-74
2024/02/29 08:24:53;;;;;;;0.10;0.10;;;11.80;88.80;;;;;;4849038;29;20376;-74
2024/02/29 08:27:19;;;;;;;0.17;0.17;;;12.00;88.30;;;;;;4845585;29;20034;-74
2024/02/29 08:29:44;;;;;;;0.15;0.15;;;12.10;88.30;;;;;;4845917;29;20402;-75
2024/02/29 08:32:10;;;;;;;0.10;0.10;;;12.20;88.00;;;;;;4845547;29;20062;-75
2024/02/29 08:34:35;;;;;;;0.10;0.10;;;12.20;87.70;;;;;;4842935;29;20155;-76
2024/02/29 08:37:02;;;;;;;0.10;0.10;;;12.20;87.50;;;;;;4850853;29;20026;-75
2024/02/29 08:39:27;;;;;;;0.10;0.10;;;12.20;87.60;;;;;;4842499;29;20490;-74
2024/02/29 08:41:53;;;;;;;0.10;0.10;;;12.20;87.30;;;;;;4863393;29;20029;-74
2024/02/29 08:44:19;;;;;;;0.10;0.10;;;12.20;87.10;;;;;;4863843;29;20053;-74
2024/02/29 08:46:44;;;;;;;0.10;0.10;;;12.20;86.80;;;;;;4847309;29;20045;-74
2024/02/29 08:49:10;;;;;;;0.10;0.10;;;12.20;86.80;;;;;;4845434;29;20034;-74
2024/02/29 08:51:36;;;;;;;0.10;0.10;;;12.20;86.80;;;;;;4844319;29;20041;-75
2024/02/29 08:54:03;;;;;;;0.10;0.10;;;12.30;86.70;;;;;;4844624;29;20033;-75
2024/02/29 08:56:29;;;;;;;0.10;0.10;;;12.30;86.10;;;;;;4842420;29;20650;-74
2024/02/29 08:58:55;;;;;;;0.10;0.10;;;12.30;86.20;;;;;;4840813;29;20026;-74
2024/02/29 09:01:20;;;;;;;0.10;0.10;;;12.30;86.20;;;;;;4844019;29;20518;-75
2024/02/29 09:03:46;;;;;;;0.10;0.10;;;12.30;86.20;;;;;;4828931;29;20051;-74
2024/02/29 09:06:13;;;;;;;0.10;0.10;;;12.40;85.80;;;;;;4855921;29;20057;-74
2024/02/29 09:08:39;;;;;;;0.10;0.10;;;12.40;85.80;;;;;;4863222;29;20030;-74
2024/02/29 09:11:05;;;;;;;0.10;0.10;;;12.50;85.80;;;;;;4846995;29;20037;-75
2024/02/29 09:13:30;;;;;;;0.20;0.20;;;12.50;85.70;;;;;;4839726;29;20073;-74
2024/02/29 09:15:56;;;;;;;0.10;0.10;;;12.60;85.20;;;;;;4844991;29;20030;-74
2024/02/29 09:18:22;;;;;;;0.10;0.10;;;12.50;85.30;;;;;;4845280;29;20037;-76
2024/02/29 09:20:48;;;;;;;0.10;0.10;;;12.30;85.20;;;;;;4844948;29;20030;-75
2024/02/29 09:23:14;;;;;;;0.10;0.10;;;12.40;85.80;;;;;;4864494;29;20528;-75
2024/02/29 09:25:39;;;;;;;0.20;0.20;;;12.50;85.40;;;;;;4851589;29;20112;-76
2024/02/29 09:28:05;;;;;;;0.10;0.10;;;12.80;84.60;;;;;;4850185;29;20045;-76
2024/02/29 09:30:31;;;;;;;0.10;0.10;;;12.80;84.10;;;;;;4866726;29;20052;-75
2024/02/29 09:32:56;;;;;;;0.20;0.20;;;12.80;84.20;;;;;;4841682;29;20040;-75
2024/02/29 09:35:22;;;;;;;0.10;0.10;;;12.80;84.20;;;;;;4855521;29;20082;-75
2024/02/29 09:37:48;;;;;;;0.10;0.10;;;12.80;84.30;;;;;;4866913;29;20025;-75
2024/02/29 09:40:15;;;;;;;0.10;0.10;;;12.80;84.30;;;;;;4854577;29;20025;-75
2024/02/29 09:42:44;;;;;;;0.13;0.13;;;12.80;83.80;;;;;;4866962;29;20053;-74
2024/02/29 09:45:11;;;;;;;0.10;0.10;;;12.90;83.60;;;;;;4866876;29;20029;-74
2024/02/29 09:47:39;;;;;;;0.10;0.10;;;13.00;83.30;;;;;;4866150;29;20026;-74
2024/02/29 09:50:07;;;;;;;0.10;0.10;;;13.10;83.50;;;;;;4848086;29;20041;-75
2024/02/29 09:52:38;;;;;;;0.10;0.10;;;13.10;83.00;;;;;;4848456;29;20041;-74
2024/02/29 09:55:16;;;;;;;0.10;0.10;;;13.00;82.90;;;;;;4847955;29;20409;-74
2024/02/29 09:57:41;;;;;;;0.10;0.10;;;13.00;83.30;;;;;;4848081;29;20026;-74
2024/02/29 10:00:10;;;;;;;0.10;0.10;;;13.10;83.60;;;;;;4849920;29;20124;-75
2024/02/29 10:02:38;;;;;;;0.10;0.10;;;13.10;83.40;;;;;;4848410;29;20029;-75
2024/02/29 10:05:09;;;;;;;0.13;0.13;;;13.10;82.90;;;;;;4866423;29;20585;-74
2024/02/29 10:07:43;;;;;;;0.10;0.10;;;13.10;82.90;;;;;;4848224;29;20030;-74
2024/02/29 10:10:12;;;;;;;0.10;0.10;;;13.20;83.20;;;;;;4847900;29;20030;-75
2024/02/29 10:12:38;;;;;;;0.10;0.10;;;13.20;82.30;;;;;;4847691;29;20034;-74
2024/02/29 10:15:06;;;;;;;0.10;0.10;;;13.00;82.50;;;;;;4847661;29;20503;-74
2024/02/29 10:17:32;;;;;;;0.10;0.10;;;13.00;82.20;;;;;;4847785;29;20058;-74
2024/02/29 10:19:58;;;;;;;0.10;0.10;;;13.10;82.20;;;;;;4847908;29;20085;-75
2024/02/29 10:22:24;;;;;;;0.10;0.10;;;13.10;82.40;;;;;;4849672;29;20535;-76
2024/02/29 10:24:54;;;;;;;0.10;0.10;;;13.10;81.70;;;;;;4862395;29;20398;-75
2024/02/29 10:27:20;;;;;;;0.20;0.20;;;13.20;82.00;;;;;;4847495;29;20073;-75
2024/02/29 10:29:49;;;;;;;0.10;0.10;;;13.50;81.50;;;;;;4863083;29;20035;-76
2024/02/29 10:32:15;;;;;;;0.10;0.10;;;13.70;80.70;;;;;;4865820;29;20065;-76
2024/02/29 10:34:41;;;;;;;0.10;0.10;;;14.00;80.40;;;;;;4845752;29;20090;-75
2024/02/29 10:37:07;;;;;;;0.10;0.10;;;13.90;79.50;;;;;;4830899;29;20026;-76
2024/02/29 10:39:34;;;;;;;0.10;0.10;;;13.80;78.90;;;;;;4847690;29;20055;-75
2024/02/29 10:42:02;;;;;;;0.10;0.10;;;13.80;78.90;;;;;;4865511;29;20033;-75
2024/02/29 10:44:32;;;;;;;0.10;0.10;;;13.80;79.10;;;;;;4861453;29;20026;-76
2024/02/29 10:47:02;;;;;;;0.10;0.10;;;13.90;79.00;;;;;;4847335;29;20033;-76
2024/02/29 10:49:37;;;;;;;0.10;0.10;;;13.80;78.50;;;;;;4831063;29;20038;-75
2024/02/29 10:52:11;;;;;;;0.10;0.10;;;13.80;78.50;;;;;;4847194;29;20038;-75
2024/02/29 10:54:48;;;;;;;0.10;0.10;;;13.70;78.50;;;;;;4847141;29;20033;-75
2024/02/29 10:57:18;;;;;;;0.10;0.10;;;13.70;78.80;;;;;;4837802;29;20387;-75
2024/02/29 10:59:53;;;;;;;0.10;0.10;;;13.60;77.90;;;;;;4862255;29;20032;-76
2024/02/29 11:02:20;;;;;;;0.10;0.10;;;13.40;78.50;;;;;;4864993;29;20098;-75
2024/02/29 11:04:46;;;;;;;0.10;0.10;;;13.30;78.60;;;;;;4848593;29;20033;-76
2024/02/29 11:07:12;;;;;;;0.10;0.10;;;13.10;78.90;;;;;;4845028;29;20508;-75
2024/02/29 11:09:39;;;;;;;0.10;0.10;;;12.90;79.20;;;;;;4864502;29;20409;-76
2024/02/29 11:12:13;;;;;;;0.10;0.10;;;12.80;79.80;;;;;;4865269;29;20045;-75
2024/02/29 11:14:42;;;;;;;0.10;0.10;;;12.80;81.00;;;;;;4854236;29;20034;-75
2024/02/29 11:17:08;;;;;;;0.10;0.10;;;12.90;81.10;;;;;;4856381;29;20131;-75
2024/02/29 11:19:34;;;;;;;0.10;0.10;;;13.00;81.10;;;;;;4862535;29;20033;-75
2024/02/29 11:22:13;;;;;;;0.10;0.10;;;13.20;80.70;;;;;;4856868;29;20482;-75
2024/02/29 11:24:42;;;;;;;0.10;0.10;;;13.20;79.80;;;;;;4865179;29;20068;-75
2024/02/29 11:27:12;;;;;;;0.10;0.10;;;13.20;79.90;;;;;;4862027;29;20029;-75
2024/02/29 11:29:39;;;;;;;0.10;0.10;;;13.10;79.40;;;;;;4864830;29;20037;-75
2024/02/29 11:32:05;;;;;;;0.10;0.10;;;13.00;80.00;;;;;;4864747;29;20081;-75
2024/02/29 11:34:31;;;;;;;0.10;0.10;;;13.00;80.20;;;;;;4865114;29;20065;-75
2024/02/29 11:36:57;;;;;;;0.10;0.10;;;13.30;80.30;;;;;;4856602;29;20554;-75
2024/02/29 11:39:23;;;;;;;0.10;0.10;;;13.30;80.00;;;;;;4846704;29;20026;-75
2024/02/29 11:41:50;;;;;;;0.20;0.20;;;13.60;79.40;;;;;;4863377;29;20021;-76
2024/02/29 11:44:16;;;;;;;0.20;0.20;;;13.90;78.30;;;;;;4858781;29;20064;-75
2024/02/29 11:46:48;;;;;;;0.20;0.20;;;14.00;77.40;;;;;;4846200;29;20034;-75
2024/02/29 11:49:15;;;;;;;0.10;0.10;;;14.00;77.20;;;;;;4846564;29;20030;-75
2024/02/29 11:51:44;;;;;;;0.10;0.10;;;13.90;75.40;;;;;;4845719;29;20490;-75
2024/02/29 11:54:14;;;;;;;0.10;0.10;;;13.90;75.60;;;;;;4846071;29;20022;-76
2024/02/29 11:56:40;;;;;;;0.10;0.10;;;13.80;75.70;;;;;;4848638;29;20397;-76
2024/02/29 11:59:06;;;;;;;0.10;0.10;;;13.70;75.10;;;;;;4844676;29;20033;-75
2024/02/29 12:01:33;;;;;;;0.10;0.10;;;13.90;74.80;;;;;;4845794;29;20082;-75
2024/02/29 12:03:59;;;;;;;0.10;0.10;;;14.00;74.70;;;;;;4837662;29;20098;-75
2024/02/29 12:06:26;;;;;;;0.10;0.10;;;13.90;73.50;;;;;;4845765;29;20030;-75
2024/02/29 12:08:52;;;;;;;0.10;0.10;;;13.90;73.70;;;;;;4845954;29;20022;-75
2024/02/29 12:11:19;;;;;;;0.10;0.10;;;13.80;73.40;;;;;;4845693;29;20034;-76
2024/02/29 12:13:44;;;;;;;0.10;0.10;;;14.10;72.70;;;;;;4845689;29;20068;-76
2024/02/29 12:16:11;;;;;;;0.10;0.10;;;14.30;71.90;;;;;;4845492;29;20097;-75
2024/02/29 12:18:37;;;;;;;0.10;0.10;;;14.30;71.70;;;;;;4846032;29;20022;-75
2024/02/29 12:21:07;;;;;;;0.10;0.10;;;14.30;72.10;;;;;;4848196;29;20088;-76
2024/02/29 12:23:33;;;;;;;0.10;0.10;;;14.30;71.00;;;;;;4864461;29;20022;-75
2024/02/29 12:26:16;;;;;;;0.10;0.10;;;14.30;71.60;;;;;;4850992;29;20495;-75
2024/02/29 12:28:42;;;;;;;0.10;0.10;;;14.30;70.50;;;;;;4853030;29;20521;-75
2024/02/29 12:31:09;;;;;;;0.10;0.10;;;14.40;70.70;;;;;;4847324;29;20102;-75
2024/02/29 12:33:53;;;;;;;0.10;0.10;;;14.30;70.40;;;;;;4845470;29;20360;-76
2024/02/29 12:36:21;;;;;;;0.10;0.10;;;14.30;70.80;;;;;;4842960;29;20026;-75
2024/02/29 12:38:48;;;;;;;0.10;0.10;;;14.30;70.10;;;;;;4844297;29;20034;-75
2024/02/29 12:41:14;;;;;;;0.10;0.10;;;14.40;71.00;;;;;;4847258;29;20030;-75
2024/02/29 12:43:49;;;;;;;0.10;0.10;;;14.50;70.70;;;;;;4851022;29;20026;-75
2024/02/29 12:46:16;;;;;;;0.10;0.10;;;14.60;71.20;;;;;;4845741;29;20574;-76
2024/02/29 12:48:43;;;;;;;0.10;0.10;;;14.70;71.00;;;;;;4829091;29;20018;-75
2024/02/29 12:51:09;;;;;;;0.20;0.20;;;14.70;70.90;;;;;;4845323;29;20030;-75
2024/02/29 12:53:35;;;;;;;0.20;0.20;;;14.70;70.50;;;;;;4845394;29;20022;-75
2024/02/29 12:56:00;;;;;;;0.10;0.10;;;14.90;70.40;;;;;;4829178;29;20091;-75
2024/02/29 12:58:26;;;;;;;0.10;0.10;;;14.90;69.50;;;;;;4851638;29;20026;-76
2024/02/29 13:00:52;;;;;;;0.10;0.10;;;14.90;70.00;;;;;;4853678;29;20030;-76
2024/02/29 13:03:17;;;;;;;0.10;0.10;;;14.90;69.40;;;;;;4850505;29;20025;-75
2024/02/29 13:05:44;;;;;;;0.10;0.10;;;14.90;69.30;;;;;;4850797;29;20025;-75
2024/02/29 13:08:10;;;;;;;0.10;0.10;;;14.90;69.90;;;;;;4852268;29;20029;-75
2024/02/29 13:10:36;;;;;;;0.10;0.10;;;14.80;69.80;;;;;;4850942;29;20034;-75
2024/02/29 13:13:03;;;;;;;0.10;0.10;;;14.70;70.40;;;;;;4866613;29;20100;-75
2024/02/29 13:15:29;;;;;;;0.10;0.10;;;14.50;70.90;;;;;;4865411;29;20029;-75
2024/02/29 13:17:54;;;;;;;0.10;0.10;;;14.30;71.00;;;;;;4848974;29;20063;-75
2024/02/29 13:20:20;;;;;;;0.10;0.10;;;14.30;72.20;;;;;;4832004;29;20061;-75
2024/02/29 13:22:45;;;;;;;0.10;0.10;;;14.10;71.60;;;;;;4865234;29;20057;-76
2024/02/29 13:25:11;;;;;;;0.10;0.10;;;14.30;71.60;;;;;;4848982;29;20150;-75
2024/02/29 13:27:37;;;;;;;0.10;0.10;;;14.40;71.60;;;;;;4848589;29;20030;-75
2024/02/29 13:30:03;;;;;;;0.10;0.10;;;14.40;71.40;;;;;;4866167;29;20779;-75
2024/02/29 13:32:28;;;;;;;0.10;0.10;;;14.40;71.70;;;;;;4850571;29;20056;-76
2024/02/29 13:34:54;;;;;;;0.10;0.10;;;14.30;71.80;;;;;;4848549;29;20414;-75
2024/02/29 13:37:20;;;;;;;0.10;0.10;;;14.50;71.80;;;;;;4848450;29;20018;-75
2024/02/29 13:39:46;;;;;;;0.10;0.10;;;14.50;71.10;;;;;;4850037;29;20030;-75
2024/02/29 13:42:11;;;;;;;0.10;0.10;;;14.50;70.90;;;;;;4866651;29;20562;-75
2024/02/29 13:44:37;;;;;;;0.10;0.10;;;14.60;70.20;;;;;;4866883;29;20094;-75
2024/02/29 13:47:06;;;;;;;0.10;0.10;;;14.70;69.90;;;;;;4857381;29;21135;-76
2024/02/29 13:49:32;;;;;;;0.10;0.10;;;14.80;69.60;;;;;;4850024;29;20034;-76
2024/02/29 13:51:58;;;;;;;0.10;0.10;;;14.90;70.10;;;;;;4864810;29;20029;-75
2024/02/29 13:54:24;;;;;;;0.10;0.10;;;14.80;70.10;;;;;;4861221;29;20034;-75
2024/02/29 13:56:51;;;;;;;0.10;0.10;;;14.70;70.50;;;;;;4848365;29;20034;-75
2024/02/29 13:59:18;;;;;;;0.10;0.10;;;14.70;70.60;;;;;;4859935;29;20038;-75
2024/02/29 14:01:43;;;;;;;0.10;0.10;;;14.50;70.10;;;;;;4866440;29;20058;-76
2024/02/29 14:04:09;;;;;;;0.10;0.10;;;14.30;69.30;;;;;;4845737;29;20094;-75
2024/02/29 14:06:35;;;;;;;0.10;0.10;;;14.20;69.90;;;;;;4848378;29;20042;-75
2024/02/29 14:09:01;;;;;;;0.10;0.10;;;14.10;69.90;;;;;;4846372;29;20040;-75
2024/02/29 14:11:26;;;;;;;0.10;0.10;;;14.10;70.40;;;;;;4847156;29;20064;-76
2024/02/29 14:13:52;;;;;;;0.10;0.10;;;14.10;70.20;;;;;;4847610;29;20042;-75
2024/02/29 14:16:18;;;;;;;0.10;0.10;;;14.20;70.10;;;;;;4847817;29;20546;-75
2024/02/29 14:18:43;;;;;;;0.10;0.10;;;14.20;70.30;;;;;;4831654;29;20037;-76
2024/02/29 14:21:09;;;;;;;0.10;0.10;;;14.20;70.20;;;;;;4851313;29;20034;-76
2024/02/29 14:23:35;;;;;;;0.10;0.10;;;14.20;70.60;;;;;;4866211;29;20036;-75
2024/02/29 14:26:02;;;;;;;0.10;0.10;;;14.20;70.60;;;;;;4864238;29;20140;-75
2024/02/29 14:28:28;;;;;;;0.10;0.10;;;14.20;70.40;;;;;;4852930;29;20078;-75
2024/02/29 14:30:55;;;;;;;0.10;0.10;;;14.20;70.90;;;;;;4865831;29;20125;-75
2024/02/29 14:33:21;;;;;;;0.10;0.10;;;14.20;71.20;;;;;;4852565;29;20118;-75
2024/02/29 14:35:47;;;;;;;0.10;0.10;;;14.20;71.10;;;;;;4847498;29;20030;-75
2024/02/29 14:38:13;;;;;;;0.10;0.10;;;14.20;71.60;;;;;;4847427;29;20040;-75
2024/02/29 14:40:39;;;;;;;0.10;0.10;;;14.30;71.30;;;;;;4855955;29;20502;-76
2024/02/29 14:43:04;;;;;;;0.10;0.10;;;14.20;71.60;;;;;;4849275;29;20033;-75
2024/02/29 14:45:31;;;;;;;0.10;0.10;;;14.20;72.30;;;;;;4852007;29;20109;-76
2024/02/29 14:47:57;;;;;;;0.10;0.10;;;14.10;72.40;;;;;;4847117;29;20041;-75
2024/02/29 14:50:23;;;;;;;0.10;0.10;;;13.90;72.60;;;;;;4847528;29;20034;-75
2024/02/29 14:52:48;;;;;;;0.00;0.00;;;13.60;72.50;;;;;;4847437;29;20034;-75
2024/02/29 14:55:14;;;;;;;0.05;0.05;;;13.30;73.50;;;;;;4847153;29;20530;-75
2024/02/29 14:57:40;;;;;;;0.05;0.05;;;13.00;74.40;;;;;;4859418;29;20034;-75
2024/02/29 15:00:11;;;;;;;0.10;0.10;;;12.80;75.70;;;;;;4848608;29;20024;-75
2024/02/29 15:02:37;;;;;;;0.10;0.10;;;12.50;77.50;;;;;;4840956;29;20029;-76
2024/02/29 15:05:06;;;;;;;0.10;0.10;;;12.30;79.60;;;;;;4830487;29;20141;-75
2024/02/29 15:07:41;;;;;;;0.10;0.10;;;12.20;80.30;;;;;;4847305;29;20034;-75
2024/02/29 15:10:11;;;;;;;0.00;0.00;;;11.70;83.00;;;;;;4848176;29;20037;-75
2024/02/29 15:12:37;;;;;;;0.10;0.10;;;11.30;84.70;;;;;;4848663;29;20034;-75
2024/02/29 15:15:04;;;;;;;0.10;0.10;;;10.90;85.90;;;;;;4865249;29;20521;-75
2024/02/29 15:17:30;;;;;;;0.10;0.10;;;10.60;87.10;;;;;;4864034;29;20113;-75
2024/02/29 15:19:55;;;;;;;0.10;0.10;;;10.20;87.80;;;;;;4846724;29;20045;-75
2024/02/29 15:22:24;;;;;;;0.10;0.10;;;10.00;88.40;;;;;;4859162;29;20113;-75
2024/02/29 15:24:50;;;;;;;0.10;0.10;;;9.90;88.70;;;;;;4844904;29;20034;-75
2024/02/29 15:27:16;;;;;;;0.10;0.10;;;9.90;88.60;;;;;;4846714;29;20030;-75
2024/02/29 15:29:44;;;;;;;0.10;0.10;;;9.80;88.00;;;;;;4860900;29;20081;-75
2024/02/29 15:32:10;;;;;;;0.10;0.10;;;9.80;87.70;;;;;;4851824;29;20057;-75
2024/02/29 15:34:36;;;;;;;0.10;0.10;;;9.90;87.50;;;;;;4846493;29;20782;-75
2024/02/29 15:37:02;;;;;;;0.10;0.10;;;9.90;87.00;;;;;;4845463;29;20128;-75
2024/02/29 15:39:27;;;;;;;0.10;0.10;;;9.90;85.80;;;;;;4846549;29;20022;-75
2024/02/29 15:41:53;;;;;;;0.10;0.10;;;10.00;84.80;;;;;;4849206;29;20053;-75
2024/02/29 15:44:18;;;;;;;0.10;0.10;;;9.80;83.50;;;;;;4849445;29;20029;-75
2024/02/29 15:46:44;;;;;;;0.10;0.10;;;10.00;84.10;;;;;;4848056;29;20098;-75
2024/02/29 15:49:09;;;;;;;0.10;0.10;;;10.00;83.70;;;;;;4864679;29;20029;-75
2024/02/29 15:51:35;;;;;;;0.10;0.10;;;9.90;83.40;;;;;;4851630;29;20041;-74
2024/02/29 15:54:01;;;;;;;0.10;0.10;;;9.80;83.20;;;;;;4846272;29;20037;-73
2024/02/29 15:56:28;;;;;;;0.10;0.10;;;9.70;83.20;;;;;;4845968;29;20499;-74
2024/02/29 15:58:54;;;;;;;0.10;0.10;;;9.80;84.20;;;;;;4854712;29;20081;-74
2024/02/29 16:01:19;;;;;;;0.10;0.10;;;9.90;83.20;;;;;;4864687;29;20030;-73
2024/02/29 16:03:45;;;;;;;0.10;0.10;;;9.60;82.60;;;;;;4854537;29;20034;-74
2024/02/29 16:06:11;;;;;;;0.10;0.10;;;9.60;83.20;;;;;;4845997;29;20090;-74
2024/02/29 16:08:37;;;;;;;0.10;0.10;;;9.70;83.60;;;;;;4845916;29;20060;-73
2024/02/29 16:11:03;;;;;;;0.10;0.10;;;9.60;83.20;;;;;;4845938;29;20578;-74
2024/02/29 16:13:29;;;;;;;0.10;0.10;;;9.70;83.90;;;;;;4846053;29;20022;-74
2024/02/29 16:15:55;;;;;;;0.10;0.10;;;9.70;83.10;;;;;;4845616;29;20037;-75
2024/02/29 16:18:21;;;;;;;0.10;0.10;;;9.70;83.40;;;;;;4845652;29;20372;-74
2024/02/29 16:20:46;;;;;;;0.10;0.10;;;9.70;83.10;;;;;;4854825;29;20026;-74
2024/02/29 16:23:13;;;;;;;0.10;0.10;;;9.70;83.30;;;;;;4864500;29;20524;-74
2024/02/29 16:25:38;;;;;;;0.10;0.10;;;9.70;83.20;;;;;;4863250;29;20033;-74
2024/02/29 16:28:04;;;;;;;0.10;0.10;;;9.80;83.10;;;;;;4848353;29;20028;-75
2024/02/29 16:30:31;;;;;;;0.10;0.10;;;9.80;83.00;;;;;;4859617;29;20108;-74
2024/02/29 16:32:56;;;;;;;0.10;0.10;;;9.90;82.80;;;;;;4844989;29;20486;-74
2024/02/29 16:35:22;;;;;;;0.10;0.10;;;9.90;82.90;;;;;;4845704;29;20038;-74
2024/02/29 16:37:48;;;;;;;0.10;0.10;;;10.00;83.00;;;;;;4845398;29;20492;-74
2024/02/29 16:40:14;;;;;;;0.10;0.10;;;10.00;82.70;;;;;;4850719;29;20405;-75
2024/02/29 16:42:39;;;;;;;0.10;0.10;;;10.00;82.50;;;;;;4864047;29;20037;-74
2024/02/29 16:45:05;;;;;;;0.10;0.10;;;9.80;83.10;;;;;;4863711;29;20055;-74
2024/02/29 16:47:31;;;;;;;0.10;0.10;;;10.00;82.70;;;;;;4843923;29;20478;-74
2024/02/29 16:49:57;;;;;;;0.10;0.10;;;10.00;82.70;;;;;;4845612;29;20038;-74
2024/02/29 16:52:23;;;;;;;0.10;0.10;;;9.90;83.10;;;;;;4845384;29;20082;-74
2024/02/29 16:54:49;;;;;;;0.10;0.10;;;9.90;83.20;;;;;;4845377;29;20034;-74
2024/02/29 16:57:15;;;;;;;0.10;0.10;;;9.90;83.10;;;;;;4845518;29;20094;-74
2024/02/29 16:59:41;;;;;;;0.10;0.10;;;9.90;82.90;;;;;;4859983;29;20037;-74
2024/02/29 17:02:07;;;;;;;0.10;0.10;;;9.90;83.10;;;;;;4863087;29;20393;-74
2024/02/29 17:04:33;;;;;;;0.10;0.10;;;9.90;82.70;;;;;;4862076;29;20044;-75
2024/02/29 17:06:59;;;;;;;0.10;0.10;;;9.90;82.80;;;;;;4828619;29;20067;-74
2024/02/29 17:09:24;;;;;;;0.10;0.10;;;10.00;82.70;;;;;;4845804;29;20509;-74
2024/02/29 17:11:50;;;;;;;0.10;0.10;;;10.00;83.10;;;;;;4845398;29;20486;-74
2024/02/29 17:14:15;;;;;;;0.10;0.10;;;9.90;83.40;;;;;;4849492;29;20037;-74
2024/02/29 17:16:42;;;;;;;0.10;0.10;;;9.90;83.40;;;;;;4845369;29;20053;-74
2024/02/29 17:19:07;;;;;;;0.10;0.10;;;9.90;83.40;;;;;;4845551;29;20034;-74
2024/02/29 17:21:33;;;;;;;0.10;0.10;;;9.80;83.10;;;;;;4851715;29;20579;-74
2024/02/29 17:23:59;;;;;;;0.10;0.10;;;9.80;83.40;;;;;;4850174;29;20041;-74
2024/02/29 17:26:24;;;;;;;0.10;0.10;;;9.70;83.40;;;;;;4845335;29;20030;-74
2024/02/29 17:28:54;;;;;;;0.10;0.10;;;9.70;83.80;;;;;;4853595;29;20060;-74
2024/02/29 17:31:20;;;;;;;0.10;0.10;;;9.70;83.10;;;;;;4848246;29;20080;-74
2024/02/29 17:33:46;;;;;;;0.10;0.10;;;9.70;83.40;;;;;;4848521;29;20026;-74
2024/02/29 17:36:12;;;;;;;0.10;0.10;;;9.70;83.70;;;;;;4845204;29;20033;-74
2024/02/29 17:38:40;;;;;;;0.10;0.10;;;9.70;83.60;;;;;;4845156;29;20026;-74
2024/02/29 17:41:07;;;;;;;0.10;0.10;;;9.60;83.20;;;;;;4856589;29;20117;-74
2024/02/29 17:43:32;;;;;;;0.10;0.10;;;9.60;83.60;;;;;;4857498;29;20018;-74
2024/02/29 17:45:58;;;;;;;0.10;0.10;;;9.50;82.70;;;;;;4848262;29;20380;-75
2024/02/29 17:48:24;;;;;;;0.10;0.10;;;9.50;83.70;;;;;;4848236;29;20422;-75
2024/02/29 17:50:49;;;;;;;0.10;0.10;;;9.50;83.50;;;;;;4848206;29;20537;-75
2024/02/29 17:53:15;;;;;;;0.10;0.10;;;9.40;83.30;;;;;;4831916;29;20073;-75
2024/02/29 17:55:40;;;;;;;0.10;0.10;;;9.30;82.90;;;;;;4857883;29;20021;-75
2024/02/29 17:58:06;;;;;;;0.10;0.10;;;9.30;83.20;;;;;;4851978;29;20037;-75
2024/02/29 18:00:32;;;;;;;0.10;0.10;;;9.30;83.30;;;;;;4866441;29;20030;-75
2024/02/29 18:03:00;;;;;;;0.10;0.10;;;9.30;83.20;;;;;;4866741;29;20040;-75
2024/02/29 18:05:26;;;;;;;0.10;0.10;;;9.30;83.70;;;;;;4852542;29;20029;-75
2024/02/29 18:07:52;;;;;;;0.10;0.10;;;9.30;83.80;;;;;;4831324;29;20045;-75
2024/02/29 18:10:18;;;;;;;0.10;0.10;;;9.30;83.10;;;;;;4848020;29;20067;-75
2024/02/29 18:12:43;;;;;;;0.10;0.10;;;9.20;82.70;;;;;;4831392;29;20038;-75
2024/02/29 18:15:11;;;;;;;0.10;0.10;;;9.00;82.20;;;;;;4847694;29;20057;-75